logo
Rechercher aéroport 
image banner adimage banner adimage banner ad
image banner ad

OKAJ - Ahmed Al Jaber Air Base

Situé à , Kuwait

ICAO - OKAJ, IATA - XIJ

Données fournies par Airmate  

Information générale

Coordonnées: N28°56'6" E47°47'31"
Élévation : 409 feet MSL.
 
Voir autres Aéroports à Al Ahmadi Governorate

Données opérationnelles

Special qualification required
Heure actuelle UTC:
Heure actuelle locale:
Météo à : OKAS - Ali Al Salem Air Base ( 53 km )
METAR: OKAS 281955Z AUTO 31011KT 9999 CLR 35/03 A2974 RMK AO2 SLP064 T03450031 $
TAF: TAF OKAS 281600Z 2816/2922 33010G18KT 9999 SKC QNH2971INS TEMPO 2816/2818 35012G20KT BECMG 2821/2822 34012G20KT 9000 HZ SKC QNH2972INS BECMG 2906/2907 35015G25KT 8000 BLDU SKC QNH2968INS BECMG 2917/2918 33012G18KT 9999 NSW SKC QNH2961INS TX46/2910Z TN29/2902Z
Voir NOTAMs / SUP AIP / TFR affectant cet aéroport [VIEW]
Fréquences de communication: [VIEW]

Pistes:

Identifiant RWYQFULongueur (ft)Largeur (ft)SurfaceLDA (ft)
15L9856131UNK
15R9857148UNK
33L9857148UNK
33R9856131UNK

Coordonnées de l'aéroport

Adresse: Kuwait

Vue satellite de OKAJ